Time;durP1;ratioP1;P1;durP2;ratioP2;P2;SDS_P1;SDS_P2;PMS_P1;PMS_P2;Temp;Humidity;BMP_temperature;BMP_pressure;BME280_temperature;BME280_humidity;BME280_pressure;Samples;Min_cycle;Max_cycle;Signal;HPM_P1;HPM_P2
2022/04/13 00:02:12;;;;;;;5.50;2.28;;;;;;;9.40;58.73;101272.34;4949601;28;20054;-79
2022/04/13 00:04:40;;;;;;;6.90;2.83;;;;;;;9.37;59.98;101270.00;4963110;28;20079;-79
2022/04/13 00:07:06;;;;;;;6.13;2.75;;;;;;;9.38;59.22;101267.25;4964354;28;20101;-79
2022/04/13 00:09:32;;;;;;;6.05;2.78;;;;;;;9.33;59.14;101265.00;4962801;28;20441;-78
2022/04/13 00:11:59;;;;;;;9.25;3.08;;;;;;;9.36;59.32;101261.28;4955576;28;20042;-78
2022/04/13 00:14:24;;;;;;;4.75;2.63;;;;;;;9.36;58.89;101258.66;4947297;28;20035;-77
2022/04/13 00:16:51;;;;;;;6.57;2.53;;;;;;;9.34;59.54;101258.81;4961501;28;20038;-79
2022/04/13 00:19:17;;;;;;;8.65;3.00;;;;;;;9.39;59.38;101255.81;4948374;28;20045;-77
2022/04/13 00:21:43;;;;;;;6.28;3.15;;;;;;;9.35;59.20;101251.78;4956746;28;20035;-78
2022/04/13 00:24:11;;;;;;;7.28;3.05;;;;;;;9.38;58.54;101256.78;4962656;28;20053;-77
2022/04/13 00:26:38;;;;;;;6.50;3.05;;;;;;;9.33;59.10;101243.22;4961163;28;20579;-78
2022/04/13 00:29:04;;;;;;;5.28;2.58;;;;;;;9.29;59.95;101239.22;4965800;28;20488;-78
2022/04/13 00:31:30;;;;;;;5.72;2.92;;;;;;;9.30;59.31;101243.47;4965051;28;20034;-76
2022/04/13 00:33:56;;;;;;;9.05;2.90;;;;;;;9.26;59.21;101248.13;4960940;28;20463;-78
2022/04/13 00:36:22;;;;;;;9.73;3.25;;;;;;;9.14;60.15;101238.69;4961487;28;20035;-76
2022/04/13 00:38:48;;;;;;;7.95;3.28;;;;;;;9.15;60.16;101240.31;4953468;28;20046;-78
2022/04/13 00:41:13;;;;;;;5.15;3.17;;;;;;;9.15;60.62;101245.56;4952248;28;20035;-80
2022/04/13 00:43:40;;;;;;;5.60;2.80;;;;;;;9.10;60.37;101245.13;4953315;28;20046;-76
2022/04/13 00:46:06;;;;;;;5.20;2.88;;;;;;;9.19;59.77;101240.91;4950291;28;20041;-77
2022/04/13 00:48:35;;;;;;;5.38;2.80;;;;;;;9.17;60.53;101235.78;4983612;28;20500;-78
2022/04/13 00:51:02;;;;;;;6.78;3.28;;;;;;;9.11;60.63;101234.50;4933273;28;20057;-79
2022/04/13 00:53:29;;;;;;;5.47;2.95;;;;;;;9.13;60.93;101232.59;4979392;28;20157;-78
2022/04/13 00:55:58;;;;;;;7.18;3.30;;;;;;;8.95;60.58;101221.03;4967908;28;22424;-80
2022/04/13 00:58:27;;;;;;;5.93;3.05;;;;;;;9.08;60.44;101231.31;4949939;28;20134;-77
2022/04/13 01:00:54;;;;;;;9.52;3.10;;;;;;;9.11;60.47;101238.91;4963069;28;20034;-77
2022/04/13 01:03:23;;;;;;;7.47;3.00;;;;;;;9.07;60.26;101227.03;4947536;28;20042;-78
2022/04/13 01:05:50;;;;;;;6.28;3.05;;;;;;;9.00;60.88;101225.88;4961827;28;20027;-79
2022/04/13 01:08:17;;;;;;;5.35;3.05;;;;;;;8.97;61.30;101237.44;4952082;28;20049;-75
2022/04/13 01:10:45;;;;;;;6.55;3.05;;;;;;;8.95;61.56;101229.69;4979783;28;20038;-79
2022/04/13 01:13:13;;;;;;;9.07;3.33;;;;;;;8.88;61.41;101241.59;4951608;28;20396;-78
2022/04/13 01:15:38;;;;;;;7.35;3.10;;;;;;;8.87;61.55;101233.88;4950134;28;20043;-76
2022/04/13 01:18:05;;;;;;;6.72;2.97;;;;;;;8.88;61.70;101244.22;4968432;28;20043;-77
2022/04/13 01:20:30;;;;;;;7.63;2.85;;;;;;;8.89;61.43;101239.81;4957685;28;20101;-76
2022/04/13 01:22:56;;;;;;;7.15;3.35;;;;;;;8.85;62.00;101234.00;4965669;28;20035;-77
2022/04/13 01:25:22;;;;;;;5.70;3.25;;;;;;;8.84;62.31;101234.13;4965822;28;20038;-80
2022/04/13 01:27:48;;;;;;;7.28;3.47;;;;;;;8.85;62.29;101233.16;4934545;28;20055;-76
2022/04/13 01:30:15;;;;;;;7.20;3.40;;;;;;;8.88;62.34;101232.94;4952600;28;20031;-76
2022/04/13 01:32:40;;;;;;;11.52;3.60;;;;;;;8.80;62.80;101227.47;4952329;28;20054;-77
2022/04/13 01:35:07;;;;;;;8.98;2.90;;;;;;;8.71;62.63;101222.03;4980638;28;20115;-80
2022/04/13 01:37:34;;;;;;;6.07;3.38;;;;;;;8.77;62.88;101225.94;4954182;28;20044;-79
2022/04/13 01:40:00;;;;;;;5.57;3.38;;;;;;;8.72;63.00;101223.72;4942754;28;20042;-75
2022/04/13 01:42:25;;;;;;;5.55;3.40;;;;;;;8.76;63.32;101230.34;4967820;28;20046;-79
2022/04/13 01:44:51;;;;;;;5.70;3.40;;;;;;;8.85;62.58;101231.38;4955759;28;20038;-80
2022/04/13 01:47:17;;;;;;;6.38;3.35;;;;;;;8.77;63.47;101226.75;4947521;28;20556;-78
2022/04/13 01:49:43;;;;;;;6.60;3.53;;;;;;;8.77;64.11;101220.72;4966866;28;20035;-81
2022/04/13 01:52:10;;;;;;;10.23;3.72;;;;;;;8.68;64.25;101216.22;4954590;28;20042;-81
2022/04/13 01:54:35;;;;;;;10.15;3.65;;;;;;;8.70;64.06;101223.00;4950535;28;20118;-77
2022/04/13 01:57:02;;;;;;;8.75;3.75;;;;;;;8.65;63.78;101229.56;4955689;28;20130;-81
2022/04/13 01:59:29;;;;;;;7.78;3.30;;;;;;;8.71;64.37;101231.66;4945923;29;20047;-78
2022/04/13 02:01:55;;;;;;;5.93;3.58;;;;;;;8.60;64.68;101229.06;4950153;28;20101;-80
2022/04/13 02:04:23;;;;;;;6.28;3.60;;;;;;;8.48;65.34;101223.03;4952662;28;20031;-79
2022/04/13 02:06:51;;;;;;;6.65;3.67;;;;;;;8.45;66.16;101231.13;4963041;28;20055;-81
2022/04/13 02:09:18;;;;;;;9.18;4.00;;;;;;;8.31;66.40;101219.09;4969670;28;20030;-81
2022/04/13 02:11:45;;;;;;;7.35;3.58;;;;;;;8.31;67.12;101224.34;4955739;28;20046;-80
2022/04/13 02:14:12;;;;;;;5.88;3.88;;;;;;;8.29;66.94;101214.00;4928898;28;20077;-79
2022/04/13 02:16:39;;;;;;;6.97;3.85;;;;;;;8.26;67.72;101219.44;4954495;28;20041;-81
2022/04/13 02:19:07;;;;;;;5.55;3.78;;;;;;;8.32;67.36;101212.91;4951879;28;20122;-79
2022/04/13 02:21:35;;;;;;;9.90;4.40;;;;;;;8.17;68.20;101207.09;4954919;28;20066;-80
2022/04/13 02:24:01;;;;;;;9.32;3.80;;;;;;;8.14;67.50;101202.94;4969963;28;20039;-77
2022/04/13 02:26:27;;;;;;;7.05;3.72;;;;;;;8.06;68.24;101189.66;4960895;28;20035;-79
2022/04/13 02:28:53;;;;;;;6.07;3.63;;;;;;;8.13;68.36;101193.44;4952870;28;20102;-82
2022/04/13 02:31:19;;;;;;;6.65;3.85;;;;;;;8.03;68.76;101200.34;4952734;28;20043;-82
2022/04/13 02:33:45;;;;;;;10.40;4.18;;;;;;;7.95;68.94;101193.09;4966713;28;20047;-78
2022/04/13 02:36:11;;;;;;;7.28;4.00;;;;;;;8.04;68.58;101209.81;4953904;28;20432;-82
2022/04/13 02:38:37;;;;;;;6.35;3.67;;;;;;;8.11;67.85;101205.78;4953486;28;20110;-83
2022/04/13 02:41:05;;;;;;;5.88;3.97;;;;;;;7.99;68.75;101202.34;4950948;28;20572;-80
2022/04/13 02:43:30;;;;;;;9.32;3.63;;;;;;;8.01;68.81;101196.19;4967972;28;20124;-79
2022/04/13 02:45:59;;;;;;;11.05;4.25;;;;;;;8.04;69.29;101209.00;4951623;28;20504;-78
2022/04/13 02:48:25;;;;;;;8.18;3.92;;;;;;;7.96;70.34;101206.97;4967583;28;20031;-78
2022/04/13 02:50:52;;;;;;;7.80;4.03;;;;;;;8.04;69.37;101206.38;4935813;28;20062;-78
2022/04/13 02:53:18;;;;;;;7.75;3.85;;;;;;;8.04;70.50;101193.31;4963583;28;20078;-77
2022/04/13 02:55:44;;;;;;;6.65;3.80;;;;;;;8.00;70.35;101192.72;4967208;28;20042;-77
2022/04/13 02:58:10;;;;;;;9.48;4.28;;;;;;;8.11;69.21;101204.97;4950736;28;20783;-77
2022/04/13 03:00:35;;;;;;;8.98;4.75;;;;;;;8.06;69.88;101188.81;4950911;28;20039;-79
2022/04/13 03:03:02;;;;;;;8.45;4.22;;;;;;;8.00;70.08;101200.56;4960589;28;20058;-77
2022/04/13 03:05:29;;;;;;;7.30;4.25;;;;;;;7.92;70.41;101184.66;4951651;28;20047;-77
2022/04/13 03:07:54;;;;;;;6.85;4.07;;;;;;;7.98;70.24;101199.84;4965587;28;20035;-78
2022/04/13 03:10:20;;;;;;;7.82;4.05;;;;;;;8.05;69.99;101200.22;4951902;28;20913;-79
2022/04/13 03:12:46;;;;;;;8.60;3.97;;;;;;;8.03;71.07;101208.19;4961594;28;20038;-78
2022/04/13 03:15:12;;;;;;;8.82;3.88;;;;;;;8.05;69.93;101205.44;4950214;28;20039;-78
2022/04/13 03:17:37;;;;;;;8.63;4.53;;;;;;;7.99;70.51;101206.75;4947634;28;20027;-81
2022/04/13 03:20:04;;;;;;;7.25;4.40;;;;;;;7.93;71.00;101208.06;4962493;28;20070;-78
2022/04/13 03:22:29;;;;;;;8.88;4.30;;;;;;;7.97;70.97;101208.66;4970389;28;20042;-78
2022/04/13 03:24:55;;;;;;;7.50;4.15;;;;;;;7.87;71.04;101192.84;4965931;28;20043;-78
2022/04/13 03:27:21;;;;;;;7.30;4.03;;;;;;;8.08;70.43;101207.81;4962575;28;20039;-78
2022/04/13 03:29:46;;;;;;;6.80;4.13;;;;;;;7.92;71.05;101206.38;4955824;28;20370;-77
2022/04/13 03:32:12;;;;;;;8.48;4.30;;;;;;;7.95;71.57;101214.00;4965588;28;20038;-77
2022/04/13 03:34:38;;;;;;;7.28;4.10;;;;;;;7.81;72.89;101224.66;4946804;28;20511;-77
2022/04/13 03:37:04;;;;;;;8.20;4.40;;;;;;;7.73;73.96;101212.19;4960620;28;20031;-77
2022/04/13 03:39:30;;;;;;;8.90;4.25;;;;;;;7.70;73.41;101220.22;4962840;28;20118;-79
2022/04/13 03:41:56;;;;;;;7.70;4.00;;;;;;;7.64;73.41;101220.72;4981582;28;20058;-79
2022/04/13 03:44:22;;;;;;;7.55;4.10;;;;;;;7.68;73.58;101210.88;4966778;28;20034;-78
2022/04/13 03:46:48;;;;;;;9.73;4.30;;;;;;;7.71;73.33;101221.91;4964914;28;20125;-77
2022/04/13 03:49:14;;;;;;;7.35;4.00;;;;;;;7.67;73.60;101217.06;4962360;28;20065;-78
2022/04/13 03:51:41;;;;;;;7.80;4.50;;;;;;;7.71;73.05;101216.69;4941273;28;20054;-78
2022/04/13 03:54:07;;;;;;;9.30;4.40;;;;;;;7.76;73.23;101217.19;4949654;28;20049;-79
2022/04/13 03:56:33;;;;;;;9.30;4.75;;;;;;;7.70;73.53;101217.63;4958979;28;20031;-79
2022/04/13 03:59:09;;;;;;;7.70;4.32;;;;;;;7.67;73.70;101209.22;4965885;28;20038;-79
2022/04/13 04:01:35;;;;;;;9.57;4.05;;;;;;;7.71;73.56;101210.66;4941067;28;20050;-79
2022/04/13 04:04:01;;;;;;;7.10;4.78;;;;;;;7.55;74.12;101209.19;4963878;28;20041;-79
2022/04/13 04:06:27;;;;;;;10.23;4.97;;;;;;;7.63;74.36;101213.00;4942987;29;20070;-77
2022/04/13 04:08:53;;;;;;;9.63;4.63;;;;;;;7.56;74.54;101212.63;4946539;28;20125;-78
2022/04/13 04:11:19;;;;;;;10.52;4.63;;;;;;;7.50;74.68;101213.94;4966405;28;20560;-77
2022/04/13 04:13:44;;;;;;;8.65;4.78;;;;;;;7.49;75.15;101220.06;4952609;28;20453;-79
2022/04/13 04:16:10;;;;;;;6.35;4.28;;;;;;;7.49;75.13;101224.47;4966995;28;20030;-79
2022/04/13 04:18:36;;;;;;;8.75;4.65;;;;;;;7.53;74.81;101221.50;4945235;28;20039;-78
2022/04/13 04:21:01;;;;;;;7.78;4.70;;;;;;;7.52;75.34;101230.31;4953843;28;20031;-80
2022/04/13 04:23:27;;;;;;;12.48;5.50;;;;;;;7.51;75.27;101228.63;4958526;28;20069;-78
2022/04/13 04:25:53;;;;;;;9.90;4.60;;;;;;;7.44;75.66;101226.59;4964869;28;20117;-78
2022/04/13 04:28:19;;;;;;;8.50;5.07;;;;;;;7.41;75.76;101225.06;4985168;28;20046;-77
2022/04/13 04:30:44;;;;;;;9.25;4.85;;;;;;;7.34;75.81;101224.66;4960137;28;20445;-79
2022/04/13 04:33:14;;;;;;;8.98;5.68;;;;;;;7.37;75.62;101229.66;4947923;28;20451;-76
2022/04/13 04:35:40;;;;;;;9.07;4.65;;;;;;;7.33;76.26;101236.06;4961754;28;20854;-77
2022/04/13 04:38:06;;;;;;;11.93;5.22;;;;;;;7.37;76.06;101236.66;4951133;28;20053;-79
2022/04/13 04:40:31;;;;;;;10.00;5.28;;;;;;;7.40;75.96;101231.19;4975236;28;20397;-79
2022/04/13 04:43:00;;;;;;;9.65;4.93;;;;;;;7.34;77.09;101235.09;4969764;28;20481;-80
2022/04/13 04:45:26;;;;;;;10.52;5.18;;;;;;;7.30;76.49;101225.00;4952434;28;20038;-83
2022/04/13 04:47:53;;;;;;;8.23;5.20;;;;;;;7.35;76.29;101225.50;4952503;28;20053;-79
2022/04/13 04:50:21;;;;;;;13.23;5.70;;;;;;;7.29;76.66;101225.94;4950901;28;20034;-82
2022/04/13 04:52:48;;;;;;;8.77;5.45;;;;;;;7.35;76.67;101231.56;4955467;28;20035;-77
2022/04/13 04:55:19;;;;;;;11.15;5.53;;;;;;;7.32;77.22;101237.00;4962544;28;20448;-78
2022/04/13 04:57:46;;;;;;;11.35;5.30;;;;;;;7.31;77.07;101237.94;4954812;28;20046;-79
2022/04/13 05:00:20;;;;;;;8.05;5.20;;;;;;;7.19;77.55;101231.00;4952219;28;20412;-80
2022/04/13 05:02:49;;;;;;;12.48;7.35;;;;;;;7.24;77.09;101244.56;4968225;28;20034;-84
2022/04/13 05:05:16;;;;;;;11.57;7.25;;;;;;;7.33;77.07;101241.28;4970265;28;20034;-82
2022/04/13 05:07:42;;;;;;;14.65;7.75;;;;;;;7.32;77.60;101244.00;4964385;28;20046;-78
2022/04/13 05:10:08;;;;;;;14.75;7.93;;;;;;;7.36;76.90;101248.84;4949473;28;20034;-78
2022/04/13 05:12:53;;;;;;;14.77;9.32;;;;;;;7.40;76.69;101250.31;4967146;28;20630;-81
2022/04/13 05:15:19;;;;;;;11.98;6.30;;;;;;;7.35;77.15;101257.66;4949936;28;20507;-80
2022/04/13 05:17:45;;;;;;;8.10;5.60;;;;;;;7.38;77.61;101262.66;4970635;28;20039;-77
2022/04/13 05:20:11;;;;;;;10.32;6.70;;;;;;;7.35;78.77;101262.88;4952128;28;20038;-82
2022/04/13 05:22:36;;;;;;;11.20;6.20;;;;;;;7.40;78.19;101257.28;4955335;28;20030;-82
2022/04/13 05:25:13;;;;;;;11.32;6.28;;;;;;;7.45;76.96;101259.59;4952668;28;20118;-78
2022/04/13 05:27:39;;;;;;;9.32;6.10;;;;;;;7.50;77.21;101260.09;4960259;28;20042;-82
2022/04/13 05:30:07;;;;;;;11.02;5.50;;;;;;;7.55;76.49;101263.16;4951144;28;20031;-82
2022/04/13 05:32:58;;;;;;;14.68;5.47;;;;;;;7.54;77.02;101266.75;4968700;28;20030;-79
2022/04/13 05:35:25;;;;;;;9.65;5.32;;;;;;;7.54;77.15;101275.41;4954163;28;20391;-77
2022/04/13 05:37:52;;;;;;;12.38;5.97;;;;;;;7.56;77.34;101273.50;4954163;28;20062;-83
2022/04/13 05:40:18;;;;;;;11.65;5.68;;;;;;;7.56;77.03;101270.88;4952781;28;20034;-82
2022/04/13 05:42:44;;;;;;;11.38;5.72;;;;;;;7.56;77.02;101265.66;4943063;28;20149;-78
2022/04/13 05:45:10;;;;;;;11.48;6.35;;;;;;;7.64;77.30;101274.72;4953748;28;20129;-78
2022/04/13 05:47:37;;;;;;;9.82;5.47;;;;;;;7.66;77.33;101268.41;4934227;28;20031;-80
2022/04/13 05:50:03;;;;;;;8.40;5.55;;;;;;;7.71;77.11;101281.16;4954258;28;20604;-81
2022/04/13 05:52:29;;;;;;;11.30;5.93;;;;;;;7.77;77.11;101288.50;4959900;28;20118;-80
2022/04/13 05:54:54;;;;;;;12.32;5.75;;;;;;;7.73;76.77;101280.06;4969998;28;20568;-82
2022/04/13 05:57:20;;;;;;;11.02;5.97;;;;;;;7.74;76.19;101280.91;4970571;28;20081;-78
2022/04/13 05:59:46;;;;;;;10.90;5.85;;;;;;;7.75;76.35;101279.97;4953206;28;20062;-80
2022/04/13 06:02:11;;;;;;;11.45;6.28;;;;;;;7.85;76.36;101290.56;4964064;28;20038;-80
2022/04/13 06:04:37;;;;;;;12.60;6.28;;;;;;;7.85;76.76;101282.72;4962280;28;20575;-81
2022/04/13 06:07:03;;;;;;;10.45;5.97;;;;;;;7.89;76.06;101294.59;4930785;28;20125;-82
2022/04/13 06:09:28;;;;;;;10.70;6.13;;;;;;;7.96;76.52;101293.19;4951300;28;20053;-81
2022/04/13 06:11:54;;;;;;;10.35;6.13;;;;;;;7.92;76.34;101287.34;4970551;28;20750;-80
2022/04/13 06:14:20;;;;;;;12.27;6.05;;;;;;;8.02;76.53;101303.16;4951188;28;20066;-78
2022/04/13 06:16:46;;;;;;;12.90;6.45;;;;;;;7.93;77.66;101281.19;4954096;28;20046;-82
2022/04/13 06:19:12;;;;;;;14.68;6.43;;;;;;;8.13;77.81;101303.19;4951476;28;20038;-79
2022/04/13 06:21:38;;;;;;;10.68;6.47;;;;;;;8.13;76.85;101303.19;4950713;28;20050;-79
2022/04/13 06:24:04;;;;;;;10.40;5.88;;;;;;;8.25;76.39;101309.28;4937024;28;20035;-81
2022/04/13 06:26:30;;;;;;;10.88;6.18;;;;;;;8.32;75.78;101310.44;4954256;28;20038;-79
2022/04/13 06:28:55;;;;;;;8.98;5.88;;;;;;;8.46;75.72;101325.13;4951825;28;20047;-80
2022/04/13 06:31:21;;;;;;;14.68;6.00;;;;;;;8.62;74.89;101329.97;4951308;28;20030;-80
2022/04/13 06:33:48;;;;;;;10.55;6.47;;;;;;;8.71;74.56;101331.06;4927085;28;20047;-81
2022/04/13 06:36:15;;;;;;;12.93;6.15;;;;;;;8.75;73.49;101319.41;4949480;28;20038;-80
2022/04/13 06:38:40;;;;;;;10.77;5.85;;;;;;;8.91;73.55;101324.25;4950198;28;20054;-79
2022/04/13 06:41:07;;;;;;;11.57;6.35;;;;;;;8.96;73.17;101325.53;4952866;28;20027;-82
2022/04/13 06:43:33;;;;;;;10.20;6.45;;;;;;;9.16;73.66;101337.03;4965166;28;20489;-81
2022/04/13 06:45:58;;;;;;;9.85;6.15;;;;;;;9.28;73.67;101329.16;4947785;28;20050;-82
2022/04/13 06:48:24;;;;;;;14.15;7.57;;;;;;;9.33;72.03;101335.69;4965380;28;20388;-79
2022/04/13 06:50:49;;;;;;;13.05;6.95;;;;;;;9.42;71.46;101336.75;4936352;28;20035;-81
2022/04/13 06:53:17;;;;;;;13.18;6.93;;;;;;;9.56;70.88;101338.22;4944652;28;20038;-83
2022/04/13 06:55:44;;;;;;;14.98;7.03;;;;;;;9.63;69.59;101333.34;4952416;28;20070;-81
2022/04/13 06:58:10;;;;;;;11.88;6.90;;;;;;;9.63;71.83;101336.78;4967490;28;20438;-83
2022/04/13 07:00:36;;;;;;;13.18;6.63;;;;;;;9.72;69.96;101346.50;4951512;28;20031;-79
2022/04/13 07:03:01;;;;;;;12.15;6.90;;;;;;;9.65;68.92;101342.72;4953497;28;20042;-79
2022/04/13 07:05:28;;;;;;;15.68;7.38;;;;;;;9.81;68.43;101349.31;4957408;28;20031;-77
2022/04/13 07:07:57;;;;;;;13.70;7.43;;;;;;;9.80;68.46;101347.66;4968751;28;20035;-80
2022/04/13 07:10:23;;;;;;;10.65;6.57;;;;;;;9.77;69.18;101347.91;4959880;28;20039;-79
2022/04/13 07:12:48;;;;;;;12.13;6.78;;;;;;;9.72;69.32;101343.88;4936293;28;20106;-80
2022/04/13 07:15:17;;;;;;;12.75;6.60;;;;;;;9.79;69.68;101346.00;4958459;28;20122;-79
2022/04/13 07:17:44;;;;;;;11.85;6.72;;;;;;;9.83;69.62;101344.78;4970625;28;20700;-80
2022/04/13 07:20:13;;;;;;;11.93;7.18;;;;;;;9.88;70.13;101346.06;4968107;28;20030;-81
2022/04/13 07:22:49;;;;;;;13.23;7.28;;;;;;;9.90;70.35;101344.13;4932648;28;20046;-80
2022/04/13 07:25:19;;;;;;;13.70;7.78;;;;;;;10.05;69.32;101342.03;4935753;28;20089;-79
2022/04/13 07:27:46;;;;;;;14.85;9.38;;;;;;;10.08;69.05;101343.59;4968456;28;20129;-81
2022/04/13 07:30:13;;;;;;;14.02;7.03;;;;;;;10.04;69.08;101335.13;4953444;28;20444;-81
2022/04/13 07:32:40;;;;;;;11.80;7.70;;;;;;;10.23;69.12;101346.72;4985006;28;20030;-81
2022/04/13 07:35:06;;;;;;;11.45;7.53;;;;;;;10.30;68.57;101355.69;4953782;28;20037;-78
2022/04/13 07:37:32;;;;;;;13.75;6.68;;;;;;;10.46;69.05;101355.28;4952416;28;20035;-79
2022/04/13 07:40:01;;;;;;;16.35;6.75;;;;;;;10.61;68.28;101353.94;4958866;28;20026;-76
2022/04/13 07:42:27;;;;;;;10.85;6.75;;;;;;;10.59;67.72;101355.88;4963704;28;20461;-77
2022/04/13 07:44:54;;;;;;;13.35;7.20;;;;;;;10.69;67.70;101351.50;4977612;28;20046;-78
2022/04/13 07:47:20;;;;;;;14.48;7.10;;;;;;;10.97;69.18;101358.78;4967374;28;20404;-80
2022/04/13 07:49:47;;;;;;;12.80;6.97;;;;;;;11.06;67.00;101363.22;4953022;28;20034;-82
2022/04/13 07:52:14;;;;;;;14.05;7.30;;;;;;;11.10;67.22;101360.19;4947970;28;20042;-81
2022/04/13 07:54:40;;;;;;;13.55;7.28;;;;;;;11.15;66.22;101366.81;4965386;28;20082;-79
2022/04/13 07:57:06;;;;;;;12.70;7.03;;;;;;;11.21;65.74;101363.69;4930883;28;20042;-78
2022/04/13 07:59:32;;;;;;;12.50;7.43;;;;;;;11.29;65.58;101362.00;4964875;28;20039;-78
2022/04/13 08:01:57;;;;;;;12.80;7.47;;;;;;;11.43;66.05;101366.06;4951117;28;20114;-81
2022/04/13 08:04:23;;;;;;;13.05;6.95;;;;;;;11.50;66.19;101371.59;4941270;28;20049;-80
2022/04/13 08:06:49;;;;;;;16.77;7.40;;;;;;;11.75;67.22;101362.31;4951361;28;20166;-79
2022/04/13 08:09:15;;;;;;;12.77;6.85;;;;;;;11.91;66.06;101374.94;4948506;28;20096;-80
2022/04/13 08:11:41;;;;;;;11.40;7.00;;;;;;;11.99;64.92;101376.88;4962177;28;20047;-78
2022/04/13 08:14:06;;;;;;;11.52;7.13;;;;;;;12.07;64.45;101371.72;4976813;28;20034;-79
2022/04/13 08:16:32;;;;;;;11.55;7.10;;;;;;;12.21;64.10;101378.38;4956123;28;20455;-79
2022/04/13 08:18:58;;;;;;;13.77;7.75;;;;;;;12.34;65.24;101383.28;4962832;28;20039;-81
2022/04/13 08:21:23;;;;;;;11.75;7.20;;;;;;;12.55;64.81;101381.31;4965291;28;20516;-79
2022/04/13 08:23:50;;;;;;;16.05;7.57;;;;;;;12.77;63.88;101381.91;4935442;28;20087;-79
2022/04/13 08:26:15;;;;;;;12.05;6.93;;;;;;;12.93;63.55;101379.47;4967119;28;20031;-79
2022/04/13 08:28:41;;;;;;;12.85;7.45;;;;;;;13.31;62.18;101384.72;4976038;28;20122;-78
2022/04/13 08:31:09;;;;;;;13.73;6.97;;;;;;;13.42;62.41;101372.13;4977777;28;20023;-80
2022/04/13 08:33:36;;;;;;;13.90;7.78;;;;;;;13.40;61.21;101386.44;4969222;28;20420;-78
2022/04/13 08:36:02;;;;;;;11.82;7.25;;;;;;;13.37;61.27;101376.19;4963738;28;20038;-77
2022/04/13 08:38:28;;;;;;;11.90;7.68;;;;;;;13.58;60.91;101384.66;4950212;28;20485;-78
2022/04/13 08:41:00;;;;;;;13.73;7.80;;;;;;;13.75;62.15;101395.34;4950245;28;20041;-78
2022/04/13 08:43:43;;;;;;;14.63;7.15;;;;;;;13.69;61.24;101391.50;4953152;28;20045;-79
2022/04/13 08:46:15;;;;;;;14.80;7.15;;;;;;;13.44;60.58;101395.72;4969787;28;20096;-79
2022/04/13 08:48:45;;;;;;;15.07;7.90;;;;;;;13.48;61.74;101401.50;4961563;28;20039;-77
2022/04/13 08:51:15;;;;;;;10.43;7.03;;;;;;;13.70;61.47;101406.34;4950830;28;20449;-79
2022/04/13 08:53:44;;;;;;;14.07;7.90;;;;;;;13.98;60.56;101411.53;4954162;28;20051;-78
2022/04/13 08:56:15;;;;;;;14.52;7.28;;;;;;;14.18;60.55;101402.47;4979040;28;20062;-78
2022/04/13 08:59:17;;;;;;;12.75;7.47;;;;;;;14.24;58.82;101405.44;4963728;28;20138;-82
2022/04/13 09:02:17;;;;;;;13.43;7.97;;;;;;;14.07;59.48;101405.34;4969897;28;20043;-82
2022/04/13 09:04:45;;;;;;;18.05;7.80;;;;;;;14.07;60.21;101408.00;4957919;28;20114;-79
2022/04/13 09:07:13;;;;;;;13.18;7.55;;;;;;;14.09;60.64;101408.66;4939446;28;20129;-83
2022/04/13 09:09:46;;;;;;;11.45;7.07;;;;;;;14.29;60.66;101405.81;4949574;28;20412;-81
2022/04/13 09:12:17;;;;;;;;;;;;;;;14.56;59.64;101416.22;4937367;28;20038;-77
2022/04/13 09:14:44;;;;;;;14.80;7.10;;;;;;;14.74;59.31;101418.81;4949031;28;19921;-81
2022/04/13 09:17:10;;;;;;;14.75;7.68;;;;;;;14.91;59.32;101421.53;4971953;28;20038;-80
2022/04/13 09:19:37;;;;;;;16.73;7.95;;;;;;;15.05;58.12;101428.03;4969453;28;20093;-78
2022/04/13 09:22:04;;;;;;;14.02;7.30;;;;;;;15.24;58.09;101422.50;4932753;28;20034;-78
2022/04/13 09:24:32;;;;;;;12.52;7.63;;;;;;;15.40;56.44;101428.81;4967459;28;20098;-78
2022/04/13 09:27:01;;;;;;;13.52;7.72;;;;;;;15.29;58.25;101422.81;4951016;28;20042;-81
2022/04/13 09:29:27;;;;;;;11.38;7.20;;;;;;;15.30;57.28;101431.59;4949470;29;20118;-79
2022/04/13 09:31:52;;;;;;;13.00;7.65;;;;;;;15.28;59.02;101430.94;4966843;28;20122;-79
2022/04/13 09:34:18;;;;;;;14.05;7.55;;;;;;;15.39;57.58;101428.00;4955489;28;20105;-79
2022/04/13 09:36:45;;;;;;;16.50;8.10;;;;;;;15.49;58.01;101419.94;4966713;28;20043;-80
2022/04/13 09:39:11;;;;;;;16.50;7.47;;;;;;;15.57;57.60;101422.56;4934425;28;20515;-82
2022/04/13 09:41:38;;;;;;;15.38;7.65;;;;;;;15.81;56.93;101429.75;4947541;28;20114;-80
2022/04/13 09:44:15;;;;;;;11.20;6.63;;;;;;;15.95;56.24;101429.09;4968347;28;20492;-78
2022/04/13 09:46:42;;;;;;;15.55;7.70;;;;;;;15.94;56.52;101421.31;4960487;28;20159;-78
2022/04/13 09:49:14;;;;;;;12.50;7.22;;;;;;;16.02;57.46;101428.44;4948653;28;20189;-78
2022/04/13 09:52:00;;;;;;;12.98;6.95;;;;;;;16.33;57.71;101428.56;4969385;28;20307;-77
2022/04/13 09:54:26;;;;;;;12.02;7.57;;;;;;;16.62;56.38;101424.56;4934845;28;20043;-78
2022/04/13 09:56:53;;;;;;;11.13;6.85;;;;;;;16.73;54.81;101421.53;4956433;28;20046;-77
2022/04/13 09:59:26;;;;;;;13.32;6.57;;;;;;;16.73;55.97;101418.91;4950832;28;20058;-79
2022/04/13 10:01:52;;;;;;;13.13;7.10;;;;;;;16.94;55.27;101434.25;4970475;28;20045;-78
2022/04/13 10:04:24;;;;;;;13.63;7.30;;;;;;;16.96;54.59;101432.25;4949110;28;20117;-80
2022/04/13 10:06:49;;;;;;;12.10;7.27;;;;;;;16.98;55.08;101432.91;4940886;28;20755;-81
2022/04/13 10:09:15;;;;;;;12.55;7.15;;;;;;;16.96;55.79;101434.06;4939135;28;20030;-78
2022/04/13 10:12:04;;;;;;;11.10;7.18;;;;;;;17.02;56.43;101428.91;4971641;28;20056;-82
2022/04/13 10:14:30;;;;;;;13.27;7.18;;;;;;;17.09;56.14;101429.88;4954859;28;20038;-79
2022/04/13 10:17:06;;;;;;;9.45;6.68;;;;;;;17.30;57.25;101423.16;4945155;28;20042;-79
2022/04/13 10:19:32;;;;;;;13.07;7.57;;;;;;;17.42;55.41;101423.56;4943225;28;20047;-77
2022/04/13 10:21:57;;;;;;;11.57;7.45;;;;;;;17.55;54.65;101426.47;4967978;28;20043;-81
2022/04/13 10:24:40;;;;;;;10.98;6.63;;;;;;;17.73;54.99;101430.69;4950744;28;20039;-79
2022/04/13 10:27:13;;;;;;;12.73;6.60;;;;;;;17.64;55.37;101428.06;4969410;28;20057;-80
2022/04/13 10:29:41;;;;;;;13.00;7.63;;;;;;;17.79;54.82;101428.13;4953432;28;20038;-78
2022/04/13 10:32:15;;;;;;;12.25;7.00;;;;;;;17.74;54.40;101430.47;4951384;28;20126;-77
2022/04/13 10:34:41;;;;;;;10.98;7.22;;;;;;;17.68;55.73;101432.00;4948909;28;20122;-78
2022/04/13 10:37:12;;;;;;;13.07;7.00;;;;;;;17.54;56.00;101434.59;4949626;28;20052;-78
2022/04/13 10:39:39;;;;;;;13.10;7.20;;;;;;;17.39;55.67;101435.34;4945275;28;20043;-80
2022/04/13 10:42:10;;;;;;;15.80;7.90;;;;;;;17.34;56.03;101435.03;4969261;28;20038;-79
2022/04/13 10:44:42;;;;;;;12.93;7.80;;;;;;;17.54;56.00;101429.28;4967618;28;20098;-76
2022/04/13 10:47:10;;;;;;;11.73;7.43;;;;;;;17.83;55.28;101431.25;4953803;28;20030;-76
2022/04/13 10:49:58;;;;;;;13.75;7.65;;;;;;;17.96;54.85;101443.97;4949348;28;20035;-81
2022/04/13 10:52:39;;;;;;;15.60;6.88;;;;;;;18.16;55.70;101437.16;4961275;28;20170;-78
2022/04/13 10:55:11;;;;;;;14.80;7.60;;;;;;;18.44;53.58;101439.19;4961367;28;20580;-81
2022/04/13 10:57:52;;;;;;;15.73;7.85;;;;;;;18.54;53.36;101439.78;4964677;28;20039;-81
2022/04/13 11:00:20;;;;;;;13.00;6.93;;;;;;;18.54;53.62;101444.28;4945875;28;20038;-79
2022/04/13 11:03:03;;;;;;;12.93;7.90;;;;;;;18.37;55.59;101447.09;4928590;28;20090;-80
2022/04/13 11:05:30;;;;;;;16.65;7.13;;;;;;;18.42;55.60;101449.19;4944089;28;20480;-77
2022/04/13 11:08:35;;;;;;;19.88;8.00;;;;;;;18.53;54.01;101453.22;4965400;28;20046;-80
2022/04/13 11:11:02;;;;;;;17.20;7.63;;;;;;;18.94;54.64;101456.28;4939748;28;20074;-78
2022/04/13 11:13:33;;;;;;;18.30;7.20;;;;;;;19.30;52.74;101458.16;4947926;28;20572;-80
2022/04/13 11:16:16;;;;;;;14.98;7.68;;;;;;;19.36;51.33;101461.91;4964418;28;20538;-77
2022/04/13 11:19:03;;;;;;;13.98;8.15;;;;;;;19.38;53.39;101467.88;4979833;28;20036;-78
2022/04/13 11:21:31;;;;;;;13.15;7.97;;;;;;;19.41;52.46;101462.19;4948706;28;20093;-78
2022/04/13 11:23:57;;;;;;;15.15;8.50;;;;;;;19.66;51.96;101465.31;4960403;28;20115;-79
2022/04/13 11:26:35;;;;;;;18.33;7.95;;;;;;;19.82;51.63;101466.97;4967791;28;20039;-80
2022/04/13 11:29:18;;;;;;;14.90;8.00;;;;;;;19.95;50.63;101471.59;4959504;28;20041;-81
2022/04/13 11:31:59;;;;;;;18.10;8.60;;;;;;;20.14;51.40;101468.25;4930187;28;20130;-79